Rebecca, Georgia
Current Conditions -  °F | °C
As of 12:15 PM on Sunday 23 Nov 2014 (Local Time) from KFZG Reporting Station
Drizzle Drizzle  
Wind Chill: 68°   Ceiling: 200
Heat Index: 68°   Visibility: 2.5mi
Dew Point: 65°   Wind: 5mph
Humidity: 91%   Direction: 150°SSE
Pressure: 29.91"   Gusts: NA
Location:  31.81°N, 83.49°W
Report Text: KFZG 231715Z AUTO 15004KT 2 1/2SM -DZ OVC002 20/19 A2991 RMK AO2 T02000185
Loading
Personal Weather Stations






























Interactive Weather Map New forecast layout! Learn more

10-Day Weather Forecast

Advertisements
Track Severe Weather on mobile